リスボン の空港の天気 - METARとTAF

ポルテラ空港 ( LPPT / LIS ) - ポルトガル リスボン
飛行場実況気象(Metar)
観測時間07/18 14:30 WEST (07/18 13:30 UTC)
風向・風速北北西 7m/s
視程10km以上
天気現象
なし
気温28℃
湿度42%
気圧1015hPa
METARLPPT 181330Z 33014KT 280V360 CAVOK 28/14 Q1015
過去の天気等 Google飛行場航空写真 Wunderground天気予報

過去48時間のMETAR

飛行場予報(TAF)
発表時間: 7/18 12:00 WEST (7/18 11:00 UTC)
予報対象時間: 18日13時 WEST ~ 19日19時 WEST
風向・風速北北西 6m/s
視程10km以上
なし
18日16時 WEST ~ 18日18時 WEST に徐々に
風向・風速北北西 9m/s
18日18時 WEST ~ 18日22時 WEST に 確率 30% で一時的に
風向・風速北北西 9m/s 瞬間風速 15m/s
18日22時 WEST ~ 19日1時 WEST に徐々に
風向・風速北北西 5m/s
視程10km以上
少しの雲 雲底高度 610m
19日1時 WEST ~ 19日8時 WEST に一時的に
全天の8割程度の雲 雲底高度 370m
19日15時 WEST ~ 19日18時 WEST に徐々に
風向・風速北北西 9m/s
視程10km以上
なし
TAF LPPT 181100Z 1812/1918 34012KT CAVOK
BECMG 1815/1817 34017KT
PROB30 TEMPO 1817/1821 34018G30KT
BECMG 1821/1824 34010KT 9999 FEW020
TEMPO 1900/1907 BKN012
BECMG 1914/1917 33017KT CAVOK